Time;durP1;ratioP1;P1;durP2;ratioP2;P2;SDS_P1;SDS_P2;PMS_P1;PMS_P2;Temp;Humidity;BMP_temperature;BMP_pressure;BME280_temperature;BME280_humidity;BME280_pressure;Samples;Min_cycle;Max_cycle;Signal;HPM_P1;HPM_P2
2022/07/18 00:01:56;;;;;;;3.63;2.75;;;;;;;;;;5032590;28;20418;-63
2022/07/18 00:04:22;;;;;;;3.97;2.38;;;;;;;;;;5032809;28;20320;-64
2022/07/18 00:06:48;;;;;;;6.57;2.92;;;;;;;;;;5032464;28;20483;-64
2022/07/18 00:09:14;;;;;;;4.93;2.67;;;;;;;;;;5032568;28;20025;-64
2022/07/18 00:11:41;;;;;;;4.53;2.67;;;;;;;;;;5032123;28;20080;-64
2022/07/18 00:14:07;;;;;;;6.30;2.60;;;;;;;;;;5032582;28;20033;-64
2022/07/18 00:16:33;;;;;;;5.38;2.78;;;;;;;;;;5032813;28;20110;-63
2022/07/18 00:19:00;;;;;;;4.65;2.75;;;;;;;;;;5032502;28;20025;-63
2022/07/18 00:21:26;;;;;;;3.33;2.33;;;;;;;;;;5032513;28;20056;-63
2022/07/18 00:23:52;;;;;;;4.25;2.60;;;;;;;;;;5032598;28;20030;-64
2022/07/18 00:26:18;;;;;;;4.90;2.70;;;;;;;;;;5032576;28;20468;-63
2022/07/18 00:28:44;;;;;;;6.03;3.13;;;;;;;;;;5032601;28;20380;-64
2022/07/18 00:31:10;;;;;;;4.32;2.90;;;;;;;;;;5032237;28;20014;-65
2022/07/18 00:33:36;;;;;;;4.35;2.90;;;;;;;;;;5032469;28;20022;-64
2022/07/18 00:36:03;;;;;;;3.08;2.50;;;;;;;;;;5032605;28;20029;-68
2022/07/18 00:38:29;;;;;;;4.70;2.83;;;;;;;;;;5032592;28;20033;-63
2022/07/18 00:40:55;;;;;;;4.32;2.90;;;;;;;;;;5032345;28;20112;-64
2022/07/18 00:43:21;;;;;;;5.05;2.63;;;;;;;;;;5032424;28;20038;-64
2022/07/18 00:45:48;;;;;;;3.85;2.70;;;;;;;;;;5032383;28;20464;-62
2022/07/18 00:48:14;;;;;;;6.68;3.00;;;;;;;;;;5032446;28;20025;-63
2022/07/18 00:50:41;;;;;;;5.85;2.83;;;;;;;;;;5032454;28;20036;-63
2022/07/18 00:53:07;;;;;;;4.82;2.80;;;;;;;;;;5032432;28;20052;-63
2022/07/18 00:55:34;;;;;;;5.38;2.67;;;;;;;;;;5032417;28;20495;-63
2022/07/18 00:58:00;;;;;;;5.60;2.60;;;;;;;;;;5032314;28;20060;-63
2022/07/18 01:03:11;;;;;;;4.95;2.50;;;;;;;;;;5032491;28;20044;-64
2022/07/18 01:05:37;;;;;;;4.47;2.75;;;;;;;;;;5032176;28;20018;-69
2022/07/18 01:08:03;;;;;;;5.85;3.20;;;;;;;;;;5032373;28;20029;-70
2022/07/18 01:10:30;;;;;;;7.28;3.45;;;;;;;;;;5032614;28;20080;-72
2022/07/18 01:12:56;;;;;;;5.53;2.60;;;;;;;;;;5031996;28;20136;-63
2022/07/18 01:15:22;;;;;;;4.55;3.08;;;;;;;;;;5032186;28;20026;-64
2022/07/18 01:17:49;;;;;;;4.53;2.78;;;;;;;;;;5032044;28;20476;-64
2022/07/18 01:20:15;;;;;;;4.68;2.33;;;;;;;;;;5032439;28;20037;-64
2022/07/18 01:22:41;;;;;;;7.72;2.80;;;;;;;;;;5032186;28;20045;-64
2022/07/18 01:25:08;;;;;;;4.25;2.92;;;;;;;;;;5032172;28;20021;-64
2022/07/18 01:27:34;;;;;;;4.95;2.45;;;;;;;;;;5032105;28;20058;-64
2022/07/18 01:30:01;;;;;;;3.38;2.70;;;;;;;;;;5032072;28;20033;-65
2022/07/18 01:32:27;;;;;;;4.55;2.85;;;;;;;;;;5033805;28;20022;-64
2022/07/18 01:34:53;;;;;;;3.53;2.58;;;;;;;;;;5035565;28;20028;-64
2022/07/18 01:37:19;;;;;;;4.43;3.08;;;;;;;;;;5035553;28;20036;-64
2022/07/18 01:39:46;;;;;;;5.05;2.78;;;;;;;;;;5035597;28;20055;-64
2022/07/18 01:42:12;;;;;;;5.28;2.85;;;;;;;;;;5035303;28;20041;-75
2022/07/18 01:44:39;;;;;;;4.07;2.90;;;;;;;;;;5035504;28;20487;-72
2022/07/18 01:47:05;;;;;;;4.18;2.80;;;;;;;;;;5035373;28;20025;-63
2022/07/18 01:49:32;;;;;;;5.22;2.67;;;;;;;;;;5035160;28;20022;-64
2022/07/18 01:51:59;;;;;;;4.55;2.58;;;;;;;;;;5035258;28;20026;-64
2022/07/18 01:54:26;;;;;;;5.32;2.40;;;;;;;;;;5035274;28;20468;-73
2022/07/18 01:56:52;;;;;;;4.95;2.90;;;;;;;;;;5035166;28;20029;-66
2022/07/18 01:59:18;;;;;;;3.35;2.22;;;;;;;;;;5035148;28;20048;-64
2022/07/18 02:01:45;;;;;;;3.67;2.25;;;;;;;;;;5034740;28;20033;-64
2022/07/18 02:04:11;;;;;;;6.45;2.78;;;;;;;;;;5035126;28;20105;-68
2022/07/18 02:06:37;;;;;;;4.43;2.30;;;;;;;;;;5034970;28;20101;-64
2022/07/18 02:09:04;;;;;;;3.72;2.47;;;;;;;;;;5035044;28;20105;-64
2022/07/18 02:11:30;;;;;;;2.88;2.45;;;;;;;;;;5034669;28;20061;-66
2022/07/18 02:13:56;;;;;;;2.80;2.13;;;;;;;;;;5034766;28;20026;-70
2022/07/18 02:16:22;;;;;;;3.63;2.75;;;;;;;;;;5034904;28;20078;-63
2022/07/18 02:18:48;;;;;;;3.78;2.70;;;;;;;;;;5034686;28;20022;-64
2022/07/18 02:21:14;;;;;;;5.75;2.25;;;;;;;;;;5034655;28;20037;-63
2022/07/18 02:23:41;;;;;;;3.88;2.50;;;;;;;;;;5034727;28;20022;-63
2022/07/18 02:26:07;;;;;;;3.17;2.28;;;;;;;;;;5034605;28;20116;-63
2022/07/18 02:28:34;;;;;;;3.53;2.38;;;;;;;;;;5033428;28;20383;-62
2022/07/18 02:31:00;;;;;;;4.63;2.47;;;;;;;;;;5034287;28;20021;-63
2022/07/18 02:33:26;;;;;;;4.13;2.47;;;;;;;;;;5034483;28;20031;-65
2022/07/18 02:35:52;;;;;;;2.97;2.38;;;;;;;;;;5034416;28;20794;-63
2022/07/18 02:38:18;;;;;;;3.78;2.63;;;;;;;;;;5034416;28;20029;-64
2022/07/18 02:40:44;;;;;;;4.55;2.83;;;;;;;;;;5034286;28;20415;-65
2022/07/18 02:43:11;;;;;;;5.50;2.72;;;;;;;;;;5033245;28;20037;-63
2022/07/18 02:45:37;;;;;;;3.95;2.58;;;;;;;;;;5034604;28;20033;-66
2022/07/18 02:48:03;;;;;;;4.32;2.83;;;;;;;;;;5034133;28;20464;-63
2022/07/18 02:50:29;;;;;;;4.13;2.63;;;;;;;;;;5034385;28;20021;-62
2022/07/18 02:52:56;;;;;;;5.00;2.80;;;;;;;;;;5034121;28;20068;-63
2022/07/18 02:55:23;;;;;;;4.18;2.70;;;;;;;;;;5034146;28;20431;-63
2022/07/18 02:57:49;;;;;;;3.83;2.50;;;;;;;;;;5034042;28;20036;-63
2022/07/18 03:00:16;;;;;;;6.28;2.55;;;;;;;;;;5033880;28;20033;-63
2022/07/18 03:02:43;;;;;;;3.17;2.65;;;;;;;;;;5033983;28;20026;-65
2022/07/18 03:05:09;;;;;;;4.05;2.65;;;;;;;;;;5033914;28;20025;-65
2022/07/18 03:07:35;;;;;;;3.88;2.65;;;;;;;;;;5033870;28;20030;-63
2022/07/18 03:10:01;;;;;;;5.05;2.65;;;;;;;;;;5033974;28;20025;-63
2022/07/18 03:12:27;;;;;;;3.92;2.28;;;;;;;;;;5033433;28;20395;-63
2022/07/18 03:14:53;;;;;;;4.80;2.67;;;;;;;;;;5033637;28;20497;-63
2022/07/18 03:17:20;;;;;;;2.38;2.10;;;;;;;;;;5033696;28;20225;-64
2022/07/18 03:19:46;;;;;;;5.95;2.75;;;;;;;;;;5033436;28;20033;-65
2022/07/18 03:22:12;;;;;;;3.70;2.67;;;;;;;;;;5033573;28;20087;-69
2022/07/18 03:24:38;;;;;;;8.52;3.00;;;;;;;;;;5033631;28;20022;-64
2022/07/18 03:27:04;;;;;;;2.72;2.30;;;;;;;;;;5033458;28;20021;-63
2022/07/18 03:29:30;;;;;;;5.03;2.28;;;;;;;;;;5033537;28;20156;-62
2022/07/18 03:31:56;;;;;;;5.75;2.35;;;;;;;;;;5033082;28;20028;-63
2022/07/18 03:34:22;;;;;;;8.02;2.97;;;;;;;;;;5033402;28;20072;-64
2022/07/18 03:36:48;;;;;;;5.25;2.50;;;;;;;;;;5033398;28;20041;-63
2022/07/18 03:39:14;;;;;;;3.53;2.50;;;;;;;;;;5033274;28;20026;-64
2022/07/18 03:41:40;;;;;;;5.82;3.13;;;;;;;;;;5033030;28;20038;-65
2022/07/18 03:44:07;;;;;;;7.32;3.92;;;;;;;;;;5033260;28;20029;-63
2022/07/18 03:46:33;;;;;;;4.18;3.28;;;;;;;;;;5033193;28;20037;-64
2022/07/18 03:48:59;;;;;;;5.15;3.47;;;;;;;;;;5033460;28;20435;-64
2022/07/18 03:51:26;;;;;;;7.53;2.88;;;;;;;;;;5032990;28;20037;-65
2022/07/18 03:53:52;;;;;;;6.60;2.85;;;;;;;;;;5032990;28;20076;-66
2022/07/18 03:56:18;;;;;;;5.57;2.28;;;;;;;;;;5032927;28;20032;-64
2022/07/18 03:58:44;;;;;;;6.22;2.70;;;;;;;;;;5033061;28;20025;-63
2022/07/18 04:01:10;;;;;;;4.07;2.13;;;;;;;;;;5032647;28;20468;-64
2022/07/18 04:03:36;;;;;;;4.50;2.22;;;;;;;;;;5033277;28;20061;-80
2022/07/18 04:06:02;;;;;;;5.25;2.88;;;;;;;;;;5033767;28;20423;-80
2022/07/18 04:08:28;;;;;;;3.08;2.20;;;;;;;;;;5031987;28;20037;-80
2022/07/18 04:10:54;;;;;;;4.85;2.60;;;;;;;;;;5031613;28;20477;-80
2022/07/18 04:13:20;;;;;;;6.18;2.85;;;;;;;;;;5032294;28;20041;-80
2022/07/18 04:15:47;;;;;;;6.05;4.30;;;;;;;;;;5033619;28;20495;-81
2022/07/18 04:18:13;;;;;;;11.07;6.15;;;;;;;;;;5033714;28;20029;-81
2022/07/18 04:20:39;;;;;;;5.97;4.03;;;;;;;;;;5033651;28;20021;-81
2022/07/18 04:23:06;;;;;;;3.13;2.40;;;;;;;;;;5032382;28;20065;-81
2022/07/18 04:25:36;;;;;;;4.50;2.80;;;;;;;;;;5032405;28;20083;-81
2022/07/18 04:28:03;;;;;;;8.10;4.95;;;;;;;;;;5033755;28;20047;-81
2022/07/18 04:30:29;;;;;;;10.45;5.78;;;;;;;;;;5032140;28;20053;-80
2022/07/18 04:32:56;;;;;;;8.98;4.20;;;;;;;;;;5031870;28;20032;-81
2022/07/18 04:35:30;;;;;;;3.85;3.08;;;;;;;;;;5056460;28;20038;-82
2022/07/18 04:38:05;;;;;;;11.70;5.80;;;;;;;;;;5056730;28;20010;-83
2022/07/18 04:40:44;;;;;;;6.78;3.75;;;;;;;;;;5056581;28;20104;-78
2022/07/18 04:43:31;;;;;;;6.05;2.95;;;;;;;;;;5057414;28;20038;-81
2022/07/18 04:49:29;;;;;;;4.70;3.08;;;;;;;;;;5056656;28;20036;-81
2022/07/18 04:51:58;;;;;;;5.22;2.78;;;;;;;;;;5048975;28;20045;-82
2022/07/18 04:54:25;;;;;;;3.13;2.50;;;;;;;;;;5045809;28;20048;-81
2022/07/18 04:56:51;;;;;;;5.65;3.40;;;;;;;;;;5031647;28;20065;-82
2022/07/18 04:59:17;;;;;;;4.43;2.70;;;;;;;;;;5031991;28;20048;-82
2022/07/18 05:01:43;;;;;;;7.28;5.53;;;;;;;;;;5033403;28;20033;-82
2022/07/18 05:04:09;;;;;;;5.40;3.65;;;;;;;;;;5031752;28;20446;-80
2022/07/18 05:06:35;;;;;;;5.70;3.50;;;;;;;;;;5032709;28;20033;-82
2022/07/18 05:09:01;;;;;;;7.47;3.70;;;;;;;;;;5036976;28;20040;-81
2022/07/18 05:11:27;;;;;;;6.85;4.50;;;;;;;;;;5035303;28;20499;-82
2022/07/18 05:13:53;;;;;;;5.13;3.05;;;;;;;;;;5035992;28;20026;-81
2022/07/18 05:16:19;;;;;;;6.63;3.53;;;;;;;;;;5036531;28;20030;-79
2022/07/18 05:18:45;;;;;;;8.85;4.55;;;;;;;;;;5035798;28;20032;-82
2022/07/18 05:21:11;;;;;;;7.20;3.40;;;;;;;;;;5035053;28;20475;-81
2022/07/18 05:23:37;;;;;;;6.68;4.10;;;;;;;;;;5035386;28;20471;-82
2022/07/18 05:26:04;;;;;;;6.88;3.63;;;;;;;;;;5035580;28;20022;-82
2022/07/18 05:28:30;;;;;;;11.07;5.65;;;;;;;;;;5036486;28;20475;-82
2022/07/18 05:30:56;;;;;;;13.38;4.35;;;;;;;;;;5036433;28;20087;-82
2022/07/18 05:33:22;;;;;;;8.18;4.03;;;;;;;;;;5036571;28;20087;-80
2022/07/18 05:35:48;;;;;;;7.70;3.33;;;;;;;;;;5035190;28;20468;-82
2022/07/18 05:38:14;;;;;;;5.07;3.30;;;;;;;;;;5035019;28;20026;-82
2022/07/18 05:40:40;;;;;;;4.75;3.47;;;;;;;;;;5047075;28;20120;-82
2022/07/18 05:43:06;;;;;;;7.55;3.67;;;;;;;;;;5036412;28;20037;-81
2022/07/18 05:45:33;;;;;;;5.68;3.28;;;;;;;;;;5036467;28;20025;-81
2022/07/18 05:47:59;;;;;;;6.22;3.47;;;;;;;;;;5034543;28;20502;-81
2022/07/18 05:50:25;;;;;;;5.07;3.17;;;;;;;;;;5034637;28;20107;-81
2022/07/18 05:52:51;;;;;;;5.65;3.15;;;;;;;;;;5035179;28;20040;-81
2022/07/18 05:55:17;;;;;;;5.07;3.33;;;;;;;;;;5036061;28;20025;-82
2022/07/18 05:57:44;;;;;;;6.45;4.70;;;;;;;;;;5036095;28;20095;-82
2022/07/18 06:00:10;;;;;;;15.10;7.38;;;;;;;;;;5034809;28;20484;-82
2022/07/18 06:02:37;;;;;;;6.53;3.33;;;;;;;;;;5034740;28;20044;-82
2022/07/18 06:05:04;;;;;;;6.25;3.45;;;;;;;;;;5035794;28;20519;-82
2022/07/18 06:07:30;;;;;;;7.05;2.90;;;;;;;;;;5034448;28;20036;-81
2022/07/18 06:09:56;;;;;;;9.32;4.03;;;;;;;;;;5034598;28;20025;-81
2022/07/18 06:12:22;;;;;;;9.35;2.95;;;;;;;;;;5035276;28;20080;-82
2022/07/18 06:14:48;;;;;;;7.07;2.33;;;;;;;;;;5035782;28;20025;-82
2022/07/18 06:17:14;;;;;;;9.05;4.28;;;;;;;;;;5035540;28;20537;-81
2022/07/18 06:19:41;;;;;;;7.90;3.63;;;;;;;;;;5037242;28;20041;-81
2022/07/18 06:22:25;;;;;;;6.88;4.07;;;;;;;;;;5047187;28;20104;-81
2022/07/18 06:25:01;;;;;;;10.23;5.55;;;;;;;;;;5043198;28;20025;-81
2022/07/18 06:27:27;;;;;;;8.65;4.78;;;;;;;;;;5051266;28;20112;-82
2022/07/18 06:36:02;;;;;;;6.70;3.70;;;;;;;;;;5026588;28;20104;-81
2022/07/18 06:38:28;;;;;;;6.20;3.50;;;;;;;;;;5015298;28;20036;-80
2022/07/18 06:40:54;;;;;;;4.63;2.50;;;;;;;;;;5015494;28;20014;-82
2022/07/18 06:43:20;;;;;;;7.10;4.30;;;;;;;;;;5015310;28;20036;-82
2022/07/18 06:45:47;;;;;;;6.43;4.32;;;;;;;;;;5013811;28;20034;-82
2022/07/18 06:48:16;;;;;;;7.18;3.08;;;;;;;;;;5013671;28;20045;-82
2022/07/18 06:50:42;;;;;;;3.20;2.58;;;;;;;;;;5013883;28;20037;-82
2022/07/18 06:53:09;;;;;;;4.30;2.30;;;;;;;;;;5015579;28;20049;-82
2022/07/18 06:55:35;;;;;;;4.25;2.72;;;;;;;;;;5014074;28;20057;-82
2022/07/18 06:58:01;;;;;;;5.53;2.70;;;;;;;;;;5013951;28;20053;-81
2022/07/18 07:00:27;;;;;;;3.55;2.53;;;;;;;;;;5013903;28;20480;-82
2022/07/18 07:02:53;;;;;;;5.80;2.95;;;;;;;;;;5013302;28;20128;-82
2022/07/18 07:05:20;;;;;;;5.32;2.60;;;;;;;;;;5013385;28;20029;-81
2022/07/18 07:07:46;;;;;;;2.65;2.20;;;;;;;;;;5013393;28;20033;-82
2022/07/18 07:10:12;;;;;;;6.07;2.78;;;;;;;;;;5014665;28;20023;-82
2022/07/18 07:12:40;;;;;;;5.03;3.00;;;;;;;;;;5014463;28;20042;-82
2022/07/18 07:15:06;;;;;;;5.97;3.25;;;;;;;;;;5014556;28;20034;-82
2022/07/18 07:17:32;;;;;;;3.80;2.33;;;;;;;;;;5014877;28;20539;-82
2022/07/18 07:19:58;;;;;;;2.25;2.00;;;;;;;;;;5012966;28;20080;-82
2022/07/18 07:22:24;;;;;;;4.13;2.13;;;;;;;;;;5014726;28;20065;-82
2022/07/18 07:24:51;;;;;;;4.18;1.90;;;;;;;;;;5014451;28;20022;-82
2022/07/18 07:27:17;;;;;;;3.85;2.40;;;;;;;;;;5013381;28;20473;-82
2022/07/18 07:29:43;;;;;;;5.85;2.30;;;;;;;;;;5012698;28;20067;-82
2022/07/18 07:32:09;;;;;;;5.55;2.05;;;;;;;;;;5013122;28;20022;-82
2022/07/18 07:34:35;;;;;;;4.05;2.70;;;;;;;;;;5014550;28;20033;-82
2022/07/18 07:37:01;;;;;;;3.80;2.30;;;;;;;;;;5013210;28;20112;-81
2022/07/18 07:39:27;;;;;;;3.55;2.03;;;;;;;;;;5013118;28;20029;-82
2022/07/18 07:41:53;;;;;;;4.20;2.00;;;;;;;;;;5014575;28;20045;-83
2022/07/18 07:44:19;;;;;;;5.05;2.75;;;;;;;;;;5012956;28;20076;-83
2022/07/18 07:46:45;;;;;;;4.32;2.65;;;;;;;;;;5013327;28;20492;-81
2022/07/18 07:49:12;;;;;;;5.22;2.50;;;;;;;;;;5014621;28;20033;-83
2022/07/18 07:51:38;;;;;;;6.50;3.50;;;;;;;;;;5014144;28;20029;-81
2022/07/18 07:54:07;;;;;;;5.57;2.65;;;;;;;;;;5014032;28;20436;-81
2022/07/18 07:56:33;;;;;;;5.85;2.30;;;;;;;;;;5012640;28;20040;-81
2022/07/18 07:59:01;;;;;;;5.15;2.10;;;;;;;;;;5013834;28;20026;-82
2022/07/18 08:01:27;;;;;;;4.82;2.30;;;;;;;;;;5012621;28;20022;-82
2022/07/18 08:03:53;;;;;;;3.65;2.38;;;;;;;;;;5014136;28;20025;-82
2022/07/18 08:06:19;;;;;;;3.80;1.85;;;;;;;;;;5012679;28;20388;-82
2022/07/18 08:08:45;;;;;;;5.15;2.30;;;;;;;;;;5013848;28;20045;-82
2022/07/18 08:11:11;;;;;;;2.95;2.28;;;;;;;;;;5013852;28;20068;-80
2022/07/18 08:13:37;;;;;;;4.07;3.22;;;;;;;;;;5012619;28;20399;-78
2022/07/18 08:16:03;;;;;;;4.28;2.60;;;;;;;;;;5013694;28;20025;-79
2022/07/18 08:18:29;;;;;;;2.28;1.80;;;;;;;;;;5012297;28;20026;-80
2022/07/18 08:20:56;;;;;;;8.32;2.78;;;;;;;;;;5013704;28;20099;-80
2022/07/18 08:23:22;;;;;;;4.78;2.40;;;;;;;;;;5014565;28;20106;-81
2022/07/18 08:25:48;;;;;;;8.77;2.60;;;;;;;;;;5012214;28;20068;-82
2022/07/18 08:28:14;;;;;;;4.18;2.45;;;;;;;;;;5014317;28;20022;-82
2022/07/18 08:30:41;;;;;;;6.70;3.20;;;;;;;;;;5012515;28;20076;-82
2022/07/18 08:33:07;;;;;;;5.65;2.05;;;;;;;;;;5019532;28;20426;-83
2022/07/18 08:35:34;;;;;;;7.63;2.45;;;;;;;;;;5015506;28;20022;-79
2022/07/18 08:38:00;;;;;;;9.70;3.53;;;;;;;;;;5014286;28;20040;-83
2022/07/18 08:40:27;;;;;;;6.93;2.35;;;;;;;;;;5014112;28;20025;-81
2022/07/18 08:42:53;;;;;;;5.50;3.25;;;;;;;;;;5016733;28;20056;-84
2022/07/18 08:45:23;;;;;;;11.35;3.47;;;;;;;;;;5017266;28;20018;-82
2022/07/18 08:47:50;;;;;;;8.33;2.80;;;;;;;;;;5018412;28;20061;-84
2022/07/18 08:50:16;;;;;;;4.15;2.20;;;;;;;;;;5017396;28;20054;-83
2022/07/18 08:52:42;;;;;;;3.65;2.28;;;;;;;;;;5017853;28;20045;-80
2022/07/18 08:55:08;;;;;;;8.93;2.90;;;;;;;;;;5015941;28;20386;-80
2022/07/18 08:57:35;;;;;;;4.75;2.70;;;;;;;;;;5017718;28;20029;-84
2022/07/18 09:00:03;;;;;;;15.57;3.20;;;;;;;;;;5016303;28;20022;-81
2022/07/18 09:02:30;;;;;;;8.25;2.90;;;;;;;;;;5020676;28;20423;-81
2022/07/18 09:05:00;;;;;;;6.13;2.90;;;;;;;;;;5020258;28;20030;-80
2022/07/18 09:07:28;;;;;;;8.63;3.10;;;;;;;;;;5015873;28;20040;-81
2022/07/18 09:09:59;;;;;;;4.82;2.67;;;;;;;;;;5019598;28;20045;-80
2022/07/18 09:12:27;;;;;;;7.57;3.00;;;;;;;;;;5019184;28;20137;-80
2022/07/18 09:14:54;;;;;;;5.32;2.67;;;;;;;;;;5015668;28;20026;-83
2022/07/18 09:17:22;;;;;;;6.32;2.92;;;;;;;;;;5015801;28;20026;-80
2022/07/18 09:19:58;;;;;;;4.20;2.15;;;;;;;;;;5022714;28;20033;-84
2022/07/18 09:22:36;;;;;;;8.27;2.47;;;;;;;;;;5021761;28;20038;-81
2022/07/18 09:25:15;;;;;;;13.43;2.95;;;;;;;;;;5021211;28;20030;-83
2022/07/18 09:27:45;;;;;;;6.47;2.78;;;;;;;;;;5020538;28;20500;-83
2022/07/18 09:30:17;;;;;;;5.28;2.25;;;;;;;;;;5023520;28;20159;-83
2022/07/18 09:32:49;;;;;;;6.65;2.78;;;;;;;;;;5025183;28;20029;-83
2022/07/18 09:35:18;;;;;;;12.00;4.78;;;;;;;;;;5020114;28;20084;-82
2022/07/18 09:38:13;;;;;;;4.75;2.30;;;;;;;;;;5016746;28;20030;-82
2022/07/18 09:40:40;;;;;;;4.28;2.70;;;;;;;;;;4940103;28;20031;-82
2022/07/18 09:43:08;;;;;;;5.50;2.80;;;;;;;;;;4955888;28;20079;-82
2022/07/18 09:45:38;;;;;;;10.20;3.60;;;;;;;;;;4956038;29;20039;-82
2022/07/18 09:48:05;;;;;;;13.68;3.72;;;;;;;;;;4956102;29;20031;-82
2022/07/18 09:50:33;;;;;;;5.00;2.15;;;;;;;;;;4956062;29;20498;-82
2022/07/18 09:53:04;;;;;;;5.78;2.80;;;;;;;;;;4955216;28;20039;-82
2022/07/18 09:55:30;;;;;;;;;;;;;;;;;;4956420;29;20035;-82
2022/07/18 09:57:58;;;;;;;8.70;3.05;;;;;;;;;;4955603;28;19933;-81
2022/07/18 10:00:24;;;;;;;3.25;2.38;;;;;;;;;;4955740;28;20047;-82
2022/07/18 10:02:51;;;;;;;5.90;2.72;;;;;;;;;;4939810;29;20379;-82
2022/07/18 10:05:17;;;;;;;3.63;2.13;;;;;;;;;;4939685;28;20040;-83
2022/07/18 10:07:43;;;;;;;5.57;2.97;;;;;;;;;;4939951;29;20035;-78
2022/07/18 10:10:09;;;;;;;3.17;2.28;;;;;;;;;;4955905;29;20062;-83
2022/07/18 10:12:36;;;;;;;5.97;2.72;;;;;;;;;;4947212;29;20524;-83
2022/07/18 10:15:04;;;;;;;6.05;2.40;;;;;;;;;;4940197;28;20118;-82
2022/07/18 10:17:30;;;;;;;4.75;2.60;;;;;;;;;;4982880;28;20135;-83
2022/07/18 10:20:02;;;;;;;3.40;2.53;;;;;;;;;;5017044;28;20076;-80
2022/07/18 10:22:29;;;;;;;8.45;2.80;;;;;;;;;;5015274;28;20046;-82
2022/07/18 10:24:55;;;;;;;3.30;2.40;;;;;;;;;;5014669;28;20480;-82
2022/07/18 10:27:23;;;;;;;5.82;2.70;;;;;;;;;;5016079;28;20109;-82
2022/07/18 10:30:12;;;;;;;8.57;2.80;;;;;;;;;;5022481;28;20471;-82
2022/07/18 10:32:43;;;;;;;4.45;2.65;;;;;;;;;;5022045;28;20085;-82
2022/07/18 10:35:12;;;;;;;4.13;2.70;;;;;;;;;;5020774;28;20390;-83
2022/07/18 10:37:44;;;;;;;4.03;2.50;;;;;;;;;;5020278;28;20105;-82
2022/07/18 10:40:24;;;;;;;5.65;2.47;;;;;;;;;;5019414;28;20403;-82
2022/07/18 10:42:51;;;;;;;;;;;;;;;;;;5020644;28;20495;-82
2022/07/18 10:45:40;;;;;;;2.78;2.17;;;;;;;;;;5015643;28;19913;-83
2022/07/18 10:48:28;;;;;;;2.95;2.55;;;;;;;;;;5021706;28;20026;-83
2022/07/18 10:51:11;;;;;;;10.30;2.90;;;;;;;;;;4996670;28;20076;-82
2022/07/18 10:53:57;;;;;;;2.85;2.22;;;;;;;;;;5022802;28;20045;-82
2022/07/18 10:56:29;;;;;;;11.27;3.05;;;;;;;;;;5021049;28;20349;-83
2022/07/18 10:59:01;;;;;;;4.32;2.78;;;;;;;;;;5034954;28;20026;-79
2022/07/18 11:02:04;;;;;;;4.18;2.63;;;;;;;;;;5031486;28;20588;-85
2022/07/18 11:04:53;;;;;;;4.03;2.58;;;;;;;;;;4955911;28;20044;-83
2022/07/18 11:08:02;;;;;;;4.85;2.20;;;;;;;;;;4975483;28;20070;-80
2022/07/18 11:13:09;;;;;;;;;;;;;;;;;;4955069;29;20043;-84
2022/07/18 11:15:54;;;;;;;6.78;3.30;;;;;;;;;;4938721;29;19907;-84
2022/07/18 11:18:20;;;;;;;6.68;2.38;;;;;;;;;;4938582;29;20398;-83
2022/07/18 11:20:47;;;;;;;5.63;2.75;;;;;;;;;;4954827;29;20046;-84
2022/07/18 11:23:18;;;;;;;9.63;2.78;;;;;;;;;;4938539;28;20070;-83
2022/07/18 11:25:44;;;;;;;4.95;2.30;;;;;;;;;;4938349;28;20031;-82
2022/07/18 11:28:15;;;;;;;2.45;2.03;;;;;;;;;;4944843;28;20058;-83
2022/07/18 11:30:41;;;;;;;;;;;;;;;;;;4945459;28;20035;-82
2022/07/18 11:33:21;;;;;;;8.40;2.95;;;;;;;;;;4945844;29;19913;-81
2022/07/18 11:35:50;;;;;;;4.15;2.70;;;;;;;;;;4960225;29;20019;-80
2022/07/18 11:38:17;;;;;;;3.25;2.70;;;;;;;;;;4947691;28;20043;-83
2022/07/18 11:40:53;;;;;;;6.93;2.40;;;;;;;;;;4991906;28;20447;-82
2022/07/18 11:43:20;;;;;;;3.03;2.40;;;;;;;;;;5015398;28;20037;-80
2022/07/18 11:45:46;;;;;;;8.90;3.95;;;;;;;;;;5012689;28;20037;-81
2022/07/18 11:48:12;;;;;;;4.60;2.80;;;;;;;;;;5012690;28;20038;-81
2022/07/18 11:50:40;;;;;;;4.15;2.85;;;;;;;;;;5013928;28;20491;-80
2022/07/18 11:53:06;;;;;;;10.02;7.53;;;;;;;;;;5013829;28;20416;-80
2022/07/18 11:55:33;;;;;;;6.93;3.08;;;;;;;;;;5014363;28;20503;-80
2022/07/18 11:58:09;;;;;;;5.47;2.95;;;;;;;;;;5013974;28;20467;-80
2022/07/18 12:00:36;;;;;;;5.30;3.00;;;;;;;;;;5013885;28;20476;-80
2022/07/18 12:03:05;;;;;;;6.40;3.30;;;;;;;;;;5022923;28;20042;-80
2022/07/18 12:05:35;;;;;;;8.57;3.42;;;;;;;;;;5027881;28;20052;-83
2022/07/18 12:08:24;;;;;;;5.82;3.17;;;;;;;;;;5027914;28;20061;-80
2022/07/18 12:11:11;;;;;;;4.18;2.78;;;;;;;;;;5021729;28;20034;-80
2022/07/18 12:13:41;;;;;;;5.35;2.70;;;;;;;;;;5008909;28;20064;-83
2022/07/18 12:16:11;;;;;;;4.90;2.63;;;;;;;;;;5019191;28;20030;-83
2022/07/18 12:18:53;;;;;;;4.28;2.90;;;;;;;;;;5020494;28;20510;-83
2022/07/18 12:21:20;;;;;;;6.20;3.30;;;;;;;;;;5019331;28;20376;-80
2022/07/18 12:23:47;;;;;;;5.13;3.00;;;;;;;;;;5017035;28;20510;-79
2022/07/18 12:26:31;;;;;;;9.38;3.10;;;;;;;;;;5017850;28;20108;-79
2022/07/18 12:29:08;;;;;;;4.43;2.75;;;;;;;;;;5019143;28;20033;-79
2022/07/18 12:31:53;;;;;;;6.47;3.53;;;;;;;;;;5018586;28;20070;-80
2022/07/18 12:34:23;;;;;;;7.90;3.42;;;;;;;;;;5022949;28;20026;-80
2022/07/18 12:36:52;;;;;;;8.43;3.75;;;;;;;;;;5016086;28;20030;-79
2022/07/18 12:39:28;;;;;;;6.63;3.20;;;;;;;;;;5019901;28;20387;-80
2022/07/18 12:42:03;;;;;;;10.05;5.38;;;;;;;;;;5018881;28;20061;-80
2022/07/18 12:44:31;;;;;;;5.30;3.15;;;;;;;;;;5023028;28;20429;-81
2022/07/18 12:47:02;;;;;;;7.10;2.97;;;;;;;;;;5019472;28;20037;-81
2022/07/18 12:49:29;;;;;;;7.95;3.28;;;;;;;;;;5030432;28;20022;-79
2022/07/18 12:51:57;;;;;;;5.75;3.63;;;;;;;;;;5019807;28;20097;-80
2022/07/18 12:54:27;;;;;;;9.02;3.95;;;;;;;;;;5019052;28;20510;-83
2022/07/18 12:56:54;;;;;;;7.63;3.17;;;;;;;;;;5019667;28;20022;-80
2022/07/18 12:59:20;;;;;;;6.63;3.40;;;;;;;;;;5014862;28;20030;-81
2022/07/18 13:01:47;;;;;;;7.20;3.67;;;;;;;;;;5019886;28;20061;-81
2022/07/18 13:04:13;;;;;;;7.15;3.05;;;;;;;;;;5021320;28;20022;-81
2022/07/18 13:06:44;;;;;;;4.70;3.13;;;;;;;;;;5021657;28;20115;-83
2022/07/18 13:09:16;;;;;;;9.07;3.40;;;;;;;;;;5020244;28;20491;-81
2022/07/18 13:11:47;;;;;;;7.78;3.75;;;;;;;;;;5023085;28;20373;-80
2022/07/18 13:14:26;;;;;;;5.45;3.83;;;;;;;;;;5018444;28;20049;-81
2022/07/18 13:16:53;;;;;;;5.03;3.03;;;;;;;;;;5013719;28;20069;-80
2022/07/18 13:19:20;;;;;;;3.47;2.65;;;;;;;;;;5011726;28;20036;-79
2022/07/18 13:21:46;;;;;;;10.27;3.00;;;;;;;;;;5012677;28;20342;-80
2022/07/18 13:24:13;;;;;;;5.53;2.85;;;;;;;;;;5012567;28;20489;-80
2022/07/18 13:26:39;;;;;;;4.50;3.22;;;;;;;;;;5012750;28;20030;-80
2022/07/18 13:29:06;;;;;;;9.02;3.90;;;;;;;;;;5014307;28;20033;-80
2022/07/18 13:31:32;;;;;;;4.18;2.72;;;;;;;;;;5014829;28;20068;-78
2022/07/18 13:33:58;;;;;;;8.85;3.53;;;;;;;;;;5014848;28;20042;-80
2022/07/18 13:36:24;;;;;;;5.03;3.40;;;;;;;;;;5016297;28;20384;-79
2022/07/18 13:38:50;;;;;;;4.93;2.92;;;;;;;;;;5016232;28;20022;-79
2022/07/18 13:41:17;;;;;;;7.15;3.72;;;;;;;;;;5015266;28;20487;-81
2022/07/18 13:43:43;;;;;;;4.00;3.10;;;;;;;;;;5015001;28;20136;-81
2022/07/18 13:46:12;;;;;;;9.98;4.40;;;;;;;;;;5014922;28;20057;-80
2022/07/18 13:48:39;;;;;;;6.90;3.28;;;;;;;;;;5014862;28;20125;-81
2022/07/18 13:51:05;;;;;;;5.18;2.85;;;;;;;;;;5016250;28;20484;-81
2022/07/18 13:53:32;;;;;;;11.80;4.60;;;;;;;;;;5015981;28;20045;-78
2022/07/18 13:55:58;;;;;;;10.63;3.60;;;;;;;;;;5014416;28;20017;-81
2022/07/18 13:58:24;;;;;;;4.72;2.90;;;;;;;;;;5014483;28;20036;-81
2022/07/18 14:00:50;;;;;;;11.35;3.97;;;;;;;;;;5018238;28;20125;-80
2022/07/18 14:03:17;;;;;;;6.47;3.67;;;;;;;;;;5015661;28;20042;-81
2022/07/18 14:05:48;;;;;;;7.30;4.00;;;;;;;;;;5023170;28;20028;-78
2022/07/18 14:08:17;;;;;;;9.57;4.00;;;;;;;;;;5023226;28;20029;-81
2022/07/18 14:10:47;;;;;;;9.70;4.30;;;;;;;;;;5021597;28;20468;-82
2022/07/18 14:13:13;;;;;;;5.63;3.90;;;;;;;;;;4995367;28;20050;-80
2022/07/18 14:15:39;;;;;;;6.72;3.38;;;;;;;;;;5005920;28;20121;-81
2022/07/18 14:18:06;;;;;;;9.68;3.85;;;;;;;;;;4996786;28;20030;-80
2022/07/18 14:20:32;;;;;;;9.48;4.07;;;;;;;;;;4997880;28;20022;-81
2022/07/18 14:22:58;;;;;;;7.15;3.80;;;;;;;;;;4994363;28;20051;-78
2022/07/18 14:25:25;;;;;;;4.57;3.00;;;;;;;;;;4995770;28;20357;-79
2022/07/18 14:27:51;;;;;;;6.40;3.00;;;;;;;;;;4994413;28;20029;-79
2022/07/18 14:30:17;;;;;;;8.25;5.20;;;;;;;;;;4996493;28;20027;-77
2022/07/18 14:32:43;;;;;;;5.70;3.80;;;;;;;;;;4995873;28;20053;-81
2022/07/18 14:35:10;;;;;;;8.55;3.22;;;;;;;;;;4997158;28;20469;-81
2022/07/18 14:37:36;;;;;;;6.72;3.83;;;;;;;;;;4996450;28;20400;-81
2022/07/18 14:40:03;;;;;;;6.15;3.72;;;;;;;;;;4999394;28;20041;-81
2022/07/18 14:42:29;;;;;;;9.43;3.53;;;;;;;;;;4994990;28;20129;-79
2022/07/18 14:44:55;;;;;;;10.63;4.50;;;;;;;;;;4998905;28;20067;-81
2022/07/18 14:47:21;;;;;;;9.48;3.53;;;;;;;;;;5001469;28;20038;-81
2022/07/18 14:49:48;;;;;;;9.07;3.88;;;;;;;;;;4997591;28;20506;-80
2022/07/18 14:52:14;;;;;;;5.07;3.40;;;;;;;;;;4995441;28;20039;-82
2022/07/18 14:54:40;;;;;;;14.75;4.65;;;;;;;;;;4994087;28;20027;-82
2022/07/18 14:57:08;;;;;;;17.55;4.95;;;;;;;;;;4996463;28;20091;-83
2022/07/18 14:59:34;;;;;;;10.40;3.50;;;;;;;;;;5006667;28;20022;-83
2022/07/18 15:02:05;;;;;;;15.50;5.63;;;;;;;;;;4999372;28;20129;-81
2022/07/18 15:04:33;;;;;;;10.60;4.00;;;;;;;;;;4997969;28;20037;-81